createdAt,value
2022-12-17T00:01:54.335Z,17.83
2022-12-17T00:04:40.526Z,18.27
2022-12-17T00:07:26.660Z,18.70
2022-12-17T00:10:12.489Z,18.70
2022-12-17T00:13:00.815Z,19.37
2022-12-17T00:15:46.891Z,19.03
2022-12-17T00:18:34.091Z,19.57
2022-12-17T00:21:20.558Z,20.60
2022-12-17T00:24:06.375Z,18.00
2022-12-17T00:26:52.489Z,17.53
2022-12-17T00:29:38.239Z,19.00
2022-12-17T00:32:24.749Z,19.43
2022-12-17T00:35:12.149Z,19.70
2022-12-17T00:37:58.309Z,20.23
2022-12-17T00:40:44.284Z,21.20
2022-12-17T00:43:30.995Z,22.27
2022-12-17T00:46:17.480Z,20.63
2022-12-17T00:49:03.728Z,19.90
2022-12-17T00:51:51.000Z,16.53
2022-12-17T00:54:37.133Z,20.53
2022-12-17T00:57:22.986Z,19.90
2022-12-17T01:00:08.970Z,20.70
2022-12-17T01:02:55.248Z,18.20
2022-12-17T01:05:42.169Z,20.07
2022-12-17T01:08:33.678Z,19.97
2022-12-17T01:11:20.607Z,17.90
2022-12-17T01:14:07.008Z,18.07
2022-12-17T01:16:53.075Z,18.97
2022-12-17T01:19:42.185Z,32.70
2022-12-17T01:22:28.388Z,21.90
2022-12-17T01:25:15.791Z,18.40
2022-12-17T01:28:01.551Z,18.03
2022-12-17T01:30:47.614Z,17.20
2022-12-17T01:33:34.121Z,19.37
2022-12-17T01:36:20.284Z,18.67
2022-12-17T01:39:06.303Z,17.00
2022-12-17T01:41:53.378Z,16.07
2022-12-17T01:44:58.288Z,16.80
2022-12-17T01:47:44.653Z,16.67
2022-12-17T01:50:30.549Z,22.90
2022-12-17T01:53:18.952Z,17.33
2022-12-17T01:56:05.014Z,16.23
2022-12-17T01:58:52.733Z,17.07
2022-12-17T02:01:38.636Z,18.03
2022-12-17T02:04:24.884Z,18.60
2022-12-17T02:07:16.639Z,16.40
2022-12-17T02:10:06.356Z,17.93
2022-12-17T02:12:55.764Z,16.40
2022-12-17T02:15:46.164Z,16.97
2022-12-17T02:18:47.053Z,17.57
2022-12-17T02:21:32.574Z,15.93
2022-12-17T02:24:24.798Z,16.00
2022-12-17T02:27:13.552Z,17.77
2022-12-17T02:30:01.597Z,15.90
2022-12-17T02:32:48.077Z,17.87
2022-12-17T02:35:35.484Z,17.10
2022-12-17T02:38:21.613Z,17.90
2022-12-17T02:41:07.749Z,15.83
2022-12-17T02:43:54.863Z,17.63
2022-12-17T02:46:40.904Z,16.83
2022-12-17T02:49:27.039Z,15.93
2022-12-17T02:52:13.412Z,16.53
2022-12-17T02:54:59.282Z,20.57
2022-12-17T02:57:47.486Z,16.63
2022-12-17T03:00:37.987Z,16.87
2022-12-17T03:03:24.112Z,15.13
2022-12-17T03:06:10.029Z,15.70
2022-12-17T03:08:56.119Z,17.43
2022-12-17T03:11:42.161Z,15.77
2022-12-17T03:14:28.228Z,15.03
2022-12-17T03:17:15.775Z,16.07
2022-12-17T03:20:01.535Z,16.17
2022-12-17T03:22:47.643Z,16.10
2022-12-17T03:25:33.783Z,15.73
2022-12-17T03:28:22.180Z,16.93
2022-12-17T03:31:08.444Z,15.70
2022-12-17T03:33:56.085Z,16.00
2022-12-17T03:36:41.939Z,17.33
2022-12-17T03:39:27.929Z,18.60
2022-12-17T03:42:13.918Z,15.10
2022-12-17T03:45:00.080Z,19.37
2022-12-17T03:47:46.297Z,15.70
2022-12-17T03:50:38.814Z,16.03
2022-12-17T03:53:24.849Z,15.60
2022-12-17T03:56:11.000Z,16.90
2022-12-17T03:58:57.040Z,15.70
2022-12-17T04:01:43.197Z,15.20
2022-12-17T04:04:29.076Z,16.83
2022-12-17T04:07:16.447Z,16.67
2022-12-17T04:10:02.492Z,15.63
2022-12-17T04:12:47.660Z,18.33
2022-12-17T04:15:33.633Z,17.10
2022-12-17T04:18:19.619Z,16.73
2022-12-17T04:21:05.552Z,15.30
2022-12-17T04:23:52.875Z,18.17
2022-12-17T04:26:38.955Z,16.23
2022-12-17T04:29:24.909Z,15.90
2022-12-17T04:32:10.952Z,15.27
2022-12-17T04:34:56.960Z,15.20
2022-12-17T04:37:43.057Z,16.67
2022-12-17T04:40:30.986Z,16.00
2022-12-17T04:43:17.039Z,17.43
2022-12-17T04:46:05.379Z,16.20
2022-12-17T04:48:51.447Z,16.87
2022-12-17T04:51:37.379Z,15.87
2022-12-17T04:54:23.288Z,15.23
2022-12-17T04:57:13.420Z,15.73
2022-12-17T04:59:59.642Z,17.63
2022-12-17T05:02:45.933Z,15.90
2022-12-17T05:05:31.946Z,16.40
2022-12-17T05:08:18.143Z,16.60
2022-12-17T05:11:04.071Z,16.23
2022-12-17T05:13:51.525Z,15.30
2022-12-17T05:16:37.483Z,14.93
2022-12-17T05:19:23.628Z,16.17
2022-12-17T05:22:09.628Z,14.93
2022-12-17T05:24:56.272Z,17.43
2022-12-17T05:27:42.278Z,16.40
2022-12-17T05:30:30.191Z,16.37
2022-12-17T05:33:19.218Z,15.70
2022-12-17T05:36:05.462Z,15.03
2022-12-17T05:38:51.319Z,15.23
2022-12-17T05:41:37.408Z,17.13
2022-12-17T05:44:23.403Z,15.83
2022-12-17T05:47:10.632Z,16.30
2022-12-17T05:49:56.637Z,14.67
2022-12-17T05:52:42.443Z,14.67
2022-12-17T05:55:28.721Z,15.63
2022-12-17T05:58:20.671Z,18.83
2022-12-17T06:01:06.655Z,16.13
2022-12-17T06:03:54.475Z,14.57
2022-12-17T06:06:40.233Z,18.30
2022-12-17T06:09:26.211Z,16.27
2022-12-17T06:12:11.946Z,15.63
2022-12-17T06:14:57.927Z,17.50
2022-12-17T06:17:43.983Z,15.60
2022-12-17T06:20:31.455Z,16.60
2022-12-17T06:23:20.472Z,19.40
2022-12-17T06:26:06.571Z,15.77
2022-12-17T06:28:52.632Z,17.30
2022-12-17T06:31:38.721Z,17.00
2022-12-17T06:34:25.180Z,17.80
2022-12-17T06:37:12.499Z,16.87
2022-12-17T06:39:58.507Z,18.43
2022-12-17T06:42:44.667Z,18.37
2022-12-17T06:45:31.055Z,17.47
2022-12-17T06:48:20.710Z,18.27
2022-12-17T06:51:06.671Z,18.33
2022-12-17T06:53:53.883Z,16.97
2022-12-17T06:56:39.798Z,16.23
2022-12-17T06:59:25.800Z,16.70
2022-12-17T07:02:11.878Z,15.73
2022-12-17T07:04:57.772Z,16.70
2022-12-17T07:07:43.993Z,19.57
2022-12-17T07:10:31.295Z,16.77
2022-12-17T07:13:23.059Z,15.87
2022-12-17T07:16:09.244Z,14.83
2022-12-17T07:18:56.133Z,14.67
2022-12-17T07:21:42.107Z,15.47
2022-12-17T07:24:28.157Z,16.03
2022-12-17T07:27:15.596Z,17.70
2022-12-17T07:30:01.604Z,17.40
2022-12-17T07:32:47.710Z,17.70
2022-12-17T07:35:33.625Z,19.33
2022-12-17T07:38:19.902Z,19.50
2022-12-17T07:41:06.362Z,19.83
2022-12-17T07:43:53.750Z,23.13
2022-12-17T07:46:39.606Z,18.10
2022-12-17T07:49:26.206Z,18.67
2022-12-17T07:52:12.508Z,16.10
2022-12-17T07:54:58.570Z,17.00
2022-12-17T07:57:44.689Z,18.07
2022-12-17T08:00:33.015Z,13.83
2022-12-17T08:03:15.664Z,16.90
2022-12-17T08:06:01.819Z,14.50
2022-12-17T08:08:47.981Z,14.40
2022-12-17T08:11:39.362Z,14.87
2022-12-17T08:14:25.323Z,14.13
2022-12-17T08:17:12.653Z,14.80
2022-12-17T08:19:58.511Z,14.07
2022-12-17T08:22:44.409Z,14.70
2022-12-17T08:25:30.319Z,14.97
2022-12-17T08:28:41.587Z,16.57
2022-12-17T08:31:22.685Z,15.23
2022-12-17T08:34:10.140Z,17.00
2022-12-17T08:36:56.057Z,17.13
2022-12-17T08:39:42.125Z,18.60
2022-12-17T08:42:28.074Z,19.17
2022-12-17T08:45:14.095Z,19.00
2022-12-17T08:48:03.920Z,19.87
2022-12-17T08:50:51.572Z,18.00
2022-12-17T08:53:38.136Z,20.93
2022-12-17T08:56:24.615Z,21.83
2022-12-17T08:59:09.846Z,19.33
2022-12-17T09:01:55.895Z,20.50
2022-12-17T09:04:41.743Z,20.43
2022-12-17T09:07:29.050Z,18.03
2022-12-17T09:10:15.018Z,17.83
2022-12-17T09:13:04.608Z,18.30
2022-12-17T09:15:52.039Z,19.57
2022-12-17T09:18:38.676Z,19.67
2022-12-17T09:21:25.017Z,17.97
2022-12-17T09:24:12.404Z,19.77
2022-12-17T09:26:58.303Z,18.80
2022-12-17T09:29:44.374Z,19.23
2022-12-17T09:32:30.383Z,17.13
2022-12-17T09:35:16.476Z,18.50
2022-12-17T09:38:02.511Z,16.60
2022-12-17T09:40:49.845Z,17.33
2022-12-17T09:43:41.135Z,16.53
2022-12-17T09:46:32.814Z,17.47
2022-12-17T09:49:19.587Z,17.50
2022-12-17T09:52:05.467Z,17.67
2022-12-17T09:54:57.647Z,16.87
2022-12-17T09:57:49.891Z,15.87
2022-12-17T10:00:36.481Z,17.13
2022-12-17T10:03:23.090Z,16.30
2022-12-17T10:06:09.499Z,16.97
2022-12-17T10:08:55.436Z,16.00
2022-12-17T10:11:45.460Z,16.50
2022-12-17T10:14:34.974Z,18.93
2022-12-17T10:17:21.012Z,20.10
2022-12-17T10:20:09.574Z,17.43
2022-12-17T10:23:01.653Z,18.30
2022-12-17T10:25:47.475Z,17.00
2022-12-17T10:28:34.503Z,18.90
2022-12-17T10:31:26.764Z,16.63
2022-12-17T10:34:14.562Z,16.27
2022-12-17T10:37:04.658Z,15.43
2022-12-17T10:39:50.466Z,14.93
2022-12-17T10:42:40.881Z,15.63
2022-12-17T10:45:37.965Z,23.90
2022-12-17T10:48:35.383Z,16.00
2022-12-17T10:51:21.888Z,16.27
2022-12-17T10:54:09.465Z,17.10
2022-12-17T10:56:55.376Z,20.13
2022-12-17T10:59:50.567Z,16.43
2022-12-17T11:02:39.406Z,17.57
2022-12-17T11:05:32.403Z,18.20
2022-12-17T11:08:19.355Z,18.27
2022-12-17T11:11:05.773Z,17.60
2022-12-17T11:13:52.971Z,19.30
2022-12-17T11:16:41.744Z,19.13
2022-12-17T11:19:38.265Z,16.50
2022-12-17T11:22:30.680Z,17.57
2022-12-17T11:25:34.423Z,16.10
2022-12-17T11:28:24.656Z,17.43
2022-12-17T11:31:13.773Z,17.10
2022-12-17T11:34:03.343Z,16.17
2022-12-17T11:36:51.719Z,17.47
2022-12-17T11:39:41.554Z,16.33
2022-12-17T11:42:31.186Z,17.00
2022-12-17T11:45:20.320Z,16.90
2022-12-17T11:48:07.667Z,17.47
2022-12-17T11:50:57.632Z,16.53
2022-12-17T11:53:58.596Z,15.93
2022-12-17T11:57:02.008Z,18.47
2022-12-17T11:59:54.918Z,16.30
2022-12-17T12:02:52.363Z,18.23
2022-12-17T12:05:44.188Z,18.60
2022-12-17T12:08:35.690Z,18.60
2022-12-17T12:11:31.259Z,18.90
2022-12-17T12:14:21.470Z,18.67
2022-12-17T12:17:09.494Z,20.27
2022-12-17T12:19:59.643Z,17.53
2022-12-17T12:22:50.552Z,16.57
2022-12-17T12:25:49.545Z,18.80
2022-12-17T12:28:40.735Z,18.53
2022-12-17T12:31:49.124Z,18.43
2022-12-17T12:34:38.035Z,18.17
2022-12-17T12:37:24.767Z,19.17
2022-12-17T12:40:14.259Z,18.30
2022-12-17T12:43:02.048Z,17.87
2022-12-17T12:45:57.567Z,18.97
2022-12-17T12:48:49.124Z,19.47
2022-12-17T12:51:38.557Z,17.43
2022-12-17T12:54:39.383Z,18.17
2022-12-17T12:57:44.087Z,19.93
2022-12-17T13:00:40.824Z,19.23
2022-12-17T13:03:42.179Z,20.53
2022-12-17T13:06:11.872Z,17.63
2022-12-17T13:08:40.854Z,20.10
2022-12-17T13:11:13.662Z,18.77
2022-12-17T13:13:55.801Z,19.17
2022-12-17T13:16:33.649Z,18.10
2022-12-17T13:19:06.094Z,17.37
2022-12-17T13:21:35.959Z,18.00
2022-12-17T13:24:12.084Z,18.10
2022-12-17T13:26:46.760Z,18.90
2022-12-17T13:29:21.539Z,17.97
2022-12-17T13:31:54.734Z,19.50
2022-12-17T13:34:27.421Z,16.87
2022-12-17T13:37:03.343Z,17.87
2022-12-17T13:39:36.107Z,16.93
2022-12-17T13:42:04.371Z,17.97
2022-12-17T13:44:36.600Z,17.40
2022-12-17T13:47:04.849Z,19.70
2022-12-17T13:49:33.700Z,20.30
2022-12-17T13:52:09.619Z,18.73
2022-12-17T13:54:39.900Z,20.17
2022-12-17T13:57:09.279Z,18.10
2022-12-17T13:59:37.556Z,18.63
2022-12-17T14:02:08.763Z,18.07
2022-12-17T14:04:37.042Z,18.37
2022-12-17T14:07:07.217Z,18.57
2022-12-17T14:09:36.572Z,17.63
2022-12-17T14:12:23.555Z,18.30
2022-12-17T14:14:54.823Z,19.40
2022-12-17T14:17:24.362Z,24.17
2022-12-17T14:19:55.908Z,33.00
2022-12-17T14:22:29.808Z,22.03
2022-12-17T14:24:58.054Z,21.03
2022-12-17T14:27:27.760Z,19.20
2022-12-17T14:29:56.803Z,21.50
2022-12-17T14:32:26.664Z,17.83
2022-12-17T14:35:00.483Z,18.90
2022-12-17T14:37:30.840Z,17.37
2022-12-17T14:40:02.319Z,18.90
2022-12-17T14:42:32.293Z,18.47
2022-12-17T14:45:01.731Z,18.00
2022-12-17T14:47:30.571Z,17.63
2022-12-17T14:50:04.339Z,18.57
2022-12-17T14:52:36.785Z,18.20
2022-12-17T14:55:19.908Z,18.50
2022-12-17T14:57:48.069Z,20.43
2022-12-17T15:00:16.616Z,18.00
2022-12-17T15:02:45.909Z,18.43
2022-12-17T15:05:15.581Z,20.53
2022-12-17T15:07:45.623Z,19.70
2022-12-17T15:10:14.824Z,21.20
2022-12-17T15:12:44.048Z,23.73
2022-12-17T15:15:14.088Z,18.47
2022-12-17T15:17:42.529Z,24.33
2022-12-17T15:20:17.002Z,21.33
2022-12-17T15:22:46.649Z,21.57
2022-12-17T15:25:14.892Z,22.70
2022-12-17T15:27:43.320Z,18.70
2022-12-17T15:30:14.612Z,21.33
2022-12-17T15:32:43.153Z,20.73
2022-12-17T15:35:12.158Z,23.87
2022-12-17T15:37:40.428Z,18.93
2022-12-17T15:40:11.861Z,19.27
2022-12-17T15:43:01.643Z,18.90
2022-12-17T15:45:34.122Z,23.27
2022-12-17T15:48:03.002Z,20.73
2022-12-17T15:50:31.629Z,17.40
2022-12-17T15:52:59.798Z,20.13
2022-12-17T15:55:29.386Z,19.67
2022-12-17T15:57:57.604Z,18.43
2022-12-17T16:00:25.842Z,19.30
2022-12-17T16:02:54.312Z,16.90
2022-12-17T16:05:23.060Z,18.73
2022-12-17T16:07:51.680Z,22.83
2022-12-17T16:10:20.593Z,18.20
2022-12-17T16:12:50.185Z,16.77
2022-12-17T16:15:18.482Z,18.20
2022-12-17T16:17:46.705Z,17.77
2022-12-17T16:20:14.913Z,16.73
2022-12-17T16:22:43.075Z,15.80
2022-12-17T16:25:11.483Z,16.63
2022-12-17T16:27:39.693Z,16.87
2022-12-17T16:30:11.126Z,16.77
2022-12-17T16:32:39.494Z,20.00
2022-12-17T16:35:08.228Z,17.57
2022-12-17T16:37:36.362Z,17.53
2022-12-17T16:40:04.737Z,17.10
2022-12-17T16:42:32.957Z,17.70
2022-12-17T16:45:01.172Z,17.43
2022-12-17T16:47:30.667Z,19.53
2022-12-17T16:49:58.839Z,18.07
2022-12-17T16:52:27.077Z,16.03
2022-12-17T16:54:55.259Z,17.93
2022-12-17T16:57:23.423Z,17.63
2022-12-17T16:59:51.574Z,20.60
2022-12-17T17:02:19.882Z,21.87
2022-12-17T17:04:49.487Z,24.93
2022-12-17T17:07:17.710Z,21.27
2022-12-17T17:09:45.975Z,20.83
2022-12-17T17:12:14.142Z,22.90
2022-12-17T17:14:44.162Z,28.97
2022-12-17T17:17:12.351Z,22.60
2022-12-17T17:19:40.524Z,22.10
2022-12-17T17:22:10.023Z,23.83
2022-12-17T17:24:38.175Z,27.57
2022-12-17T17:27:06.399Z,22.50
2022-12-17T17:29:34.543Z,27.30
2022-12-17T17:32:11.305Z,26.77
2022-12-17T17:34:40.944Z,28.90
2022-12-17T17:37:10.459Z,23.80
2022-12-17T17:39:38.746Z,29.37
2022-12-17T17:42:07.454Z,29.40
2022-12-17T17:44:35.677Z,26.90
2022-12-17T17:47:04.019Z,28.37
2022-12-17T17:49:32.299Z,24.23
2022-12-17T17:52:09.517Z,23.90
2022-12-17T17:54:40.827Z,23.17
2022-12-17T17:57:09.258Z,26.03
2022-12-17T17:59:39.167Z,24.97
2022-12-17T18:02:07.403Z,23.20
2022-12-17T18:04:35.855Z,24.13
2022-12-17T18:09:53.682Z,31.67
2022-12-17T18:12:39.746Z,27.13
2022-12-17T18:15:17.659Z,30.87
2022-12-17T18:17:46.998Z,31.43
2022-12-17T18:20:15.260Z,30.20
2022-12-17T18:22:43.466Z,29.00
2022-12-17T18:25:13.178Z,29.40
2022-12-17T18:27:41.416Z,27.70
2022-12-17T18:30:10.136Z,31.00
2022-12-17T18:32:38.299Z,33.03
2022-12-17T18:35:06.813Z,33.40
2022-12-17T18:37:34.991Z,30.80
2022-12-17T18:40:03.269Z,41.00
2022-12-17T18:42:50.638Z,35.50
2022-12-17T18:45:18.893Z,34.63
2022-12-17T18:47:47.103Z,33.57
2022-12-17T18:50:15.279Z,34.73
2022-12-17T18:52:43.427Z,32.60
2022-12-17T18:55:11.668Z,30.57
2022-12-17T18:57:41.173Z,32.97
2022-12-17T19:00:10.116Z,35.97
2022-12-17T19:02:38.446Z,32.97
2022-12-17T19:05:06.874Z,36.10
2022-12-17T19:07:35.092Z,31.47
2022-12-17T19:10:03.241Z,36.27
2022-12-17T19:12:31.391Z,32.97
2022-12-17T19:15:00.935Z,28.17
2022-12-17T19:17:29.150Z,25.60
2022-12-17T19:19:57.302Z,31.60
2022-12-17T19:22:25.479Z,30.13
2022-12-17T19:24:53.737Z,29.07
2022-12-17T19:27:21.991Z,31.17
2022-12-17T19:29:50.238Z,29.40
2022-12-17T19:32:19.855Z,26.33
2022-12-17T19:34:48.038Z,29.63
2022-12-17T19:37:16.202Z,28.77
2022-12-17T19:39:45.112Z,28.00
2022-12-17T19:42:25.002Z,28.30
2022-12-17T19:44:53.520Z,34.17
2022-12-17T19:47:23.438Z,35.53
2022-12-17T19:49:51.931Z,27.10
2022-12-17T19:52:20.208Z,33.03
2022-12-17T19:54:48.459Z,31.90
2022-12-17T19:57:16.647Z,28.50
2022-12-17T19:59:44.864Z,28.83
2022-12-17T20:02:15.579Z,29.47
2022-12-17T20:04:45.435Z,31.43
2022-12-17T20:07:13.616Z,32.60
2022-12-17T20:09:44.074Z,29.03
2022-12-17T20:12:12.286Z,29.00
2022-12-17T20:14:40.446Z,28.30
2022-12-17T20:17:08.678Z,34.30
2022-12-17T20:19:37.282Z,28.80
2022-12-17T20:22:07.662Z,29.77
2022-12-17T20:24:37.228Z,29.77
2022-12-17T20:27:05.780Z,26.23
2022-12-17T20:29:34.029Z,28.73
2022-12-17T20:32:03.384Z,30.13
2022-12-17T20:34:31.855Z,34.90
2022-12-17T20:37:00.028Z,34.63
2022-12-17T20:39:29.894Z,30.70
2022-12-17T20:41:58.356Z,29.33
2022-12-17T20:44:26.667Z,34.47
2022-12-17T20:46:55.028Z,27.70
2022-12-17T20:49:23.210Z,28.93
2022-12-17T20:51:51.420Z,29.23
2022-12-17T20:54:19.830Z,31.40
2022-12-17T20:56:49.944Z,29.77
2022-12-17T20:59:18.737Z,29.50
2022-12-17T21:01:52.820Z,28.17
2022-12-17T21:04:24.066Z,24.80
2022-12-17T21:06:52.909Z,26.83
2022-12-17T21:09:22.459Z,30.70
2022-12-17T21:11:52.092Z,25.67
2022-12-17T21:14:20.878Z,18.93
2022-12-17T21:16:49.309Z,27.70
2022-12-17T21:19:18.576Z,26.70
2022-12-17T21:21:46.940Z,25.70
2022-12-17T21:24:15.158Z,27.63
2022-12-17T21:26:44.309Z,29.90
2022-12-17T21:29:14.504Z,30.73
2022-12-17T21:31:43.382Z,26.10
2022-12-17T21:34:12.895Z,32.40
2022-12-17T21:36:41.511Z,27.93
2022-12-17T21:39:10.127Z,25.23
2022-12-17T21:41:44.594Z,24.10
2022-12-17T21:44:15.730Z,25.93
2022-12-17T21:46:50.149Z,27.10
2022-12-17T21:49:18.945Z,27.13
2022-12-17T21:51:47.388Z,25.73
2022-12-17T21:54:19.596Z,22.60
2022-12-17T21:56:48.403Z,25.33
2022-12-17T21:59:18.156Z,26.53
2022-12-17T22:01:46.546Z,23.37
2022-12-17T22:04:15.011Z,27.37
2022-12-17T22:06:48.898Z,24.80
2022-12-17T22:09:40.610Z,25.97
2022-12-17T22:12:28.219Z,27.60
2022-12-17T22:14:57.797Z,25.33
2022-12-17T22:17:26.483Z,24.73
2022-12-17T22:19:54.694Z,25.40
2022-12-17T22:22:22.834Z,25.40
2022-12-17T22:24:51.022Z,25.47
2022-12-17T22:27:19.308Z,25.57
2022-12-17T22:30:05.062Z,22.07
2022-12-17T22:32:52.063Z,27.23
2022-12-17T22:37:05.925Z,25.37
2022-12-17T22:43:45.209Z,25.83
2022-12-17T22:44:12.747Z,26.00
2022-12-17T22:44:44.738Z,23.63
2022-12-17T22:46:32.902Z,28.47
2022-12-17T22:49:02.501Z,26.80
2022-12-17T22:51:35.800Z,25.43
2022-12-17T22:54:10.726Z,27.20
2022-12-17T22:57:12.252Z,26.77
2022-12-17T22:59:28.261Z,28.73
2022-12-17T23:01:56.772Z,27.03
2022-12-17T23:04:26.403Z,25.87
2022-12-17T23:06:54.640Z,25.57
2022-12-17T23:09:24.024Z,30.40
2022-12-17T23:11:52.221Z,30.17
2022-12-17T23:14:20.490Z,27.27
2022-12-17T23:16:48.734Z,29.10
2022-12-17T23:19:16.934Z,25.73
2022-12-17T23:21:46.478Z,26.30
2022-12-17T23:24:14.765Z,27.73
2022-12-17T23:26:42.944Z,31.90
2022-12-17T23:29:19.411Z,28.47
2022-12-17T23:31:48.311Z,25.13
2022-12-17T23:34:16.756Z,25.90
2022-12-17T23:36:44.929Z,28.80
2022-12-17T23:39:14.610Z,25.37
2022-12-17T23:41:42.863Z,28.50
2022-12-17T23:44:11.043Z,29.70
2022-12-17T23:46:39.307Z,30.03
2022-12-17T23:49:07.909Z,28.23
2022-12-17T23:51:36.132Z,29.73
2022-12-17T23:54:04.345Z,32.30
2022-12-17T23:56:33.876Z,27.40
2022-12-17T23:59:03.004Z,28.90
